createdAt,value
2023-06-19T00:00:13.637Z,95994.81
2023-06-19T00:01:45.339Z,96001.16
2023-06-19T00:03:17.024Z,96003.28
2023-06-19T00:04:50.032Z,96002.69
2023-06-19T00:06:21.636Z,96009.44
2023-06-19T00:07:53.355Z,96001.72
2023-06-19T00:09:25.078Z,95999.44
2023-06-19T00:10:56.725Z,95999.78
2023-06-19T00:12:28.328Z,96002.31
2023-06-19T00:14:00.077Z,95996.22
2023-06-19T00:15:31.710Z,96004.19
2023-06-19T00:17:03.644Z,96009.31
2023-06-19T00:18:40.894Z,96007.66
2023-06-19T00:20:14.670Z,96007.09
2023-06-19T00:21:47.012Z,96010.31
2023-06-19T00:23:18.644Z,96004.91
2023-06-19T00:24:50.368Z,96013.19
2023-06-19T00:26:26.419Z,96013.53
2023-06-19T00:27:58.137Z,96012.44
2023-06-19T00:29:29.842Z,96012.97
2023-06-19T00:31:01.517Z,96015.41
2023-06-19T00:32:33.154Z,96014.38
2023-06-19T00:34:04.795Z,96018.63
2023-06-19T00:35:37.844Z,96012.75
2023-06-19T00:37:09.756Z,96011.84
2023-06-19T00:38:41.464Z,96014.41
2023-06-19T00:43:53.996Z,96018.47
2023-06-19T00:45:26.459Z,96021.19
2023-06-19T00:47:00.622Z,96018.28
2023-06-19T00:48:33.080Z,96020.06
2023-06-19T00:50:05.527Z,96020.13
2023-06-19T00:51:38.700Z,96021.84
2023-06-19T00:53:10.384Z,96025.56
2023-06-19T00:54:42.003Z,96028.09
2023-06-19T00:56:13.638Z,96035.75
2023-06-19T00:57:45.286Z,96027.13
2023-06-19T00:59:20.828Z,96033.03
2023-06-19T01:01:03.813Z,96035.13
2023-06-19T01:02:39.888Z,96039.28
2023-06-19T01:04:11.703Z,96044.97
2023-06-19T01:05:43.738Z,96042.00
2023-06-19T01:07:16.839Z,96041.88
2023-06-19T01:08:52.353Z,96044.00
2023-06-19T01:10:26.397Z,96051.25
2023-06-19T01:12:00.181Z,96044.09
2023-06-19T01:13:34.761Z,96060.16
2023-06-19T01:15:07.611Z,96054.97
2023-06-19T01:16:39.361Z,96056.00
2023-06-19T01:18:12.429Z,96062.13
2023-06-19T01:19:44.185Z,96061.75
2023-06-19T01:21:16.376Z,96061.97
2023-06-19T01:22:49.337Z,96063.50
2023-06-19T01:24:21.099Z,96063.03
2023-06-19T01:25:52.988Z,96059.34
2023-06-19T01:27:24.847Z,96060.50
2023-06-19T01:28:56.696Z,96061.19
2023-06-19T01:30:28.555Z,96054.81
2023-06-19T01:32:06.377Z,96058.94
2023-06-19T01:33:38.014Z,96064.44
2023-06-19T01:35:12.596Z,96066.19
2023-06-19T01:36:44.349Z,96064.25
2023-06-19T01:38:18.052Z,96068.28
2023-06-19T01:39:49.859Z,96070.72
2023-06-19T01:41:21.660Z,96071.34
2023-06-19T01:42:53.680Z,96074.50
2023-06-19T01:44:25.425Z,96083.19
2023-06-19T01:45:57.070Z,96073.72
2023-06-19T01:47:28.767Z,96074.47
2023-06-19T01:49:00.478Z,96085.41
2023-06-19T01:50:32.108Z,96083.47
2023-06-19T01:52:04.290Z,96092.69
2023-06-19T01:53:37.663Z,96097.41
2023-06-19T01:55:10.588Z,96099.41
2023-06-19T01:56:42.361Z,96088.78
2023-06-19T01:58:14.039Z,96089.59
2023-06-19T01:59:45.664Z,96101.53
2023-06-19T02:01:17.490Z,96102.91
2023-06-19T02:02:49.145Z,96090.66
2023-06-19T02:04:20.868Z,96105.44
2023-06-19T02:05:52.695Z,96105.44
2023-06-19T02:07:24.496Z,96098.84
2023-06-19T02:08:57.660Z,96105.81
2023-06-19T02:10:29.475Z,96103.94
2023-06-19T02:12:01.177Z,96103.44
2023-06-19T02:13:32.910Z,96107.38
2023-06-19T02:15:05.329Z,96109.59
2023-06-19T02:16:36.992Z,96110.38
2023-06-19T02:18:09.493Z,96108.34
2023-06-19T02:19:41.159Z,96113.22
2023-06-19T02:21:12.861Z,96121.69
2023-06-19T02:22:44.664Z,96122.25
2023-06-19T02:24:17.683Z,96126.13
2023-06-19T02:25:49.389Z,96129.97
2023-06-19T02:27:21.062Z,96136.97
2023-06-19T02:28:52.844Z,96139.34
2023-06-19T02:30:24.801Z,96135.97
2023-06-19T02:31:56.600Z,96135.41
2023-06-19T02:33:28.266Z,96134.84
2023-06-19T02:34:59.944Z,96136.00
2023-06-19T02:36:31.656Z,96151.91
2023-06-19T02:38:05.667Z,96157.19
2023-06-19T02:39:39.138Z,96151.19
2023-06-19T02:41:10.776Z,96166.31
2023-06-19T02:42:42.499Z,96168.78
2023-06-19T02:44:14.869Z,96177.97
2023-06-19T02:45:46.631Z,96177.44
2023-06-19T02:47:18.367Z,96178.56
2023-06-19T02:48:50.058Z,96176.16
2023-06-19T02:50:22.082Z,96184.69
2023-06-19T02:51:54.018Z,96185.28
2023-06-19T02:53:25.688Z,96185.16
2023-06-19T02:57:18.059Z,96183.00
2023-06-19T02:58:51.103Z,96192.66
2023-06-19T03:00:23.131Z,96195.78
2023-06-19T03:01:55.103Z,96197.59
2023-06-19T03:03:26.953Z,96198.06
2023-06-19T03:04:58.751Z,96194.13
2023-06-19T03:06:30.500Z,96201.13
2023-06-19T03:08:02.323Z,96196.81
2023-06-19T03:09:33.984Z,96193.84
2023-06-19T03:11:06.310Z,96191.53
2023-06-19T03:12:38.029Z,96194.06
2023-06-19T03:14:11.082Z,96189.31
2023-06-19T03:15:43.025Z,96191.00
2023-06-19T03:17:15.317Z,96200.25
2023-06-19T03:18:47.806Z,96193.34
2023-06-19T03:20:21.984Z,96204.66
2023-06-19T03:21:54.046Z,96197.19
2023-06-19T03:23:25.699Z,96188.56
2023-06-19T03:24:57.420Z,96188.22
2023-06-19T03:26:29.195Z,96192.47
2023-06-19T03:28:00.919Z,96199.03
2023-06-19T03:29:34.004Z,96201.41
2023-06-19T03:31:05.659Z,96191.75
2023-06-19T03:32:37.474Z,96198.78
2023-06-19T03:34:09.159Z,96193.00
2023-06-19T03:35:41.829Z,96201.47
2023-06-19T03:37:14.315Z,96198.72
2023-06-19T03:38:46.156Z,96206.00
2023-06-19T03:40:18.222Z,96202.53
2023-06-19T03:41:49.925Z,96209.19
2023-06-19T03:43:21.654Z,96206.13
2023-06-19T03:44:54.748Z,96212.72
2023-06-19T03:46:26.610Z,96210.84
2023-06-19T03:47:58.448Z,96223.44
2023-06-19T03:49:30.203Z,96221.56
2023-06-19T03:51:02.125Z,96223.22
2023-06-19T03:52:34.315Z,96228.88
2023-06-19T03:54:06.148Z,96237.41
2023-06-19T03:55:37.868Z,96242.06
2023-06-19T03:57:09.934Z,96236.25
2023-06-19T03:58:41.661Z,96235.81
2023-06-19T04:00:15.973Z,96237.25
2023-06-19T04:01:47.943Z,96238.09
2023-06-19T04:03:19.835Z,96237.00
2023-06-19T04:04:51.565Z,96253.22
2023-06-19T04:06:23.945Z,96241.97
2023-06-19T04:07:55.650Z,96242.91
2023-06-19T04:09:27.338Z,96248.19
2023-06-19T04:10:59.380Z,96251.28
2023-06-19T04:12:31.075Z,96241.91
2023-06-19T04:14:02.933Z,96252.00
2023-06-19T04:15:37.010Z,96251.41
2023-06-19T04:17:08.916Z,96245.88
2023-06-19T04:18:40.658Z,96240.06
2023-06-19T04:20:13.311Z,96240.03
2023-06-19T04:21:44.987Z,96249.34
2023-06-19T04:23:16.794Z,96247.19
2023-06-19T04:24:48.517Z,96236.28
2023-06-19T04:26:22.412Z,96240.59
2023-06-19T04:27:54.074Z,96245.59
2023-06-19T04:29:25.745Z,96251.44
2023-06-19T04:31:01.725Z,96249.28
2023-06-19T04:32:33.631Z,96252.00
2023-06-19T04:34:05.847Z,96250.47
2023-06-19T04:35:43.603Z,96252.94
2023-06-19T04:37:20.134Z,96261.03
2023-06-19T04:38:54.672Z,96268.47
2023-06-19T04:40:26.929Z,96265.22
2023-06-19T04:41:58.949Z,96279.31
2023-06-19T04:43:30.601Z,96280.00
2023-06-19T04:45:02.373Z,96274.63
2023-06-19T04:46:36.223Z,96283.66
2023-06-19T04:48:08.058Z,96280.00
2023-06-19T04:49:40.106Z,96283.06
2023-06-19T04:51:11.980Z,96286.00
2023-06-19T04:52:43.630Z,96282.19
2023-06-19T04:54:15.513Z,96280.41
2023-06-19T04:55:47.546Z,96283.25
2023-06-19T04:57:19.199Z,96287.78
2023-06-19T04:58:52.355Z,96293.44
2023-06-19T05:00:25.122Z,96298.59
2023-06-19T05:01:59.034Z,96304.00
2023-06-19T05:03:30.880Z,96312.84
2023-06-19T05:05:04.634Z,96305.31
2023-06-19T05:06:36.401Z,96309.56
2023-06-19T05:08:08.148Z,96306.88
2023-06-19T05:09:39.829Z,96302.81
2023-06-19T05:11:11.468Z,96301.75
2023-06-19T05:12:43.256Z,96308.00
2023-06-19T05:14:17.631Z,96302.47
2023-06-19T05:15:49.869Z,96306.72
2023-06-19T05:17:23.083Z,96305.44
2023-06-19T05:18:54.848Z,96309.81
2023-06-19T05:20:26.688Z,96314.06
2023-06-19T05:21:58.589Z,96309.88
2023-06-19T05:23:30.325Z,96300.47
2023-06-19T05:25:01.984Z,96306.25
2023-06-19T05:26:33.817Z,96303.28
2023-06-19T05:28:06.237Z,96301.34
2023-06-19T05:29:38.174Z,96311.47
2023-06-19T05:31:10.207Z,96308.78
2023-06-19T05:32:43.307Z,96305.16
2023-06-19T05:34:15.202Z,96301.09
2023-06-19T05:35:53.305Z,96306.16
2023-06-19T05:37:25.047Z,96310.44
2023-06-19T05:38:56.788Z,96322.00
2023-06-19T05:40:29.848Z,96325.31
2023-06-19T05:42:02.918Z,96325.59
2023-06-19T05:43:34.685Z,96337.44
2023-06-19T05:45:07.337Z,96328.78
2023-06-19T05:46:42.456Z,96325.41
2023-06-19T05:48:18.849Z,96338.44
2023-06-19T05:49:53.922Z,96335.72
2023-06-19T05:51:33.926Z,96334.47
2023-06-19T05:53:27.278Z,96343.47
2023-06-19T05:55:04.399Z,96346.41
2023-06-19T05:56:39.120Z,96349.22
2023-06-19T05:58:11.092Z,96344.59
2023-06-19T05:59:43.161Z,96358.78
2023-06-19T06:01:17.170Z,96344.09
2023-06-19T06:02:49.063Z,96350.03
2023-06-19T06:04:23.180Z,96353.56
2023-06-19T06:06:41.712Z,96358.06
2023-06-19T06:08:13.441Z,96352.50
2023-06-19T06:09:45.130Z,96341.13
2023-06-19T06:11:16.780Z,96348.69
2023-06-19T06:12:49.081Z,96343.81
2023-06-19T06:14:20.931Z,96341.44
2023-06-19T06:15:52.634Z,96340.03
2023-06-19T06:17:24.587Z,96337.50
2023-06-19T06:18:56.480Z,96342.78
2023-06-19T06:20:29.839Z,96336.06
2023-06-19T06:22:01.517Z,96336.31
2023-06-19T06:23:33.244Z,96340.19
2023-06-19T06:25:05.611Z,96337.59
2023-06-19T06:26:38.126Z,96340.81
2023-06-19T06:28:09.858Z,96342.47
2023-06-19T06:29:41.508Z,96332.69
2023-06-19T06:31:13.171Z,96328.94
2023-06-19T06:32:44.978Z,96331.00
2023-06-19T06:34:17.100Z,96333.28
2023-06-19T06:35:50.226Z,96332.47
2023-06-19T06:37:32.284Z,96328.03
2023-06-19T06:39:04.084Z,96322.34
2023-06-19T06:40:35.839Z,96317.91
2023-06-19T06:42:07.604Z,96310.44
2023-06-19T06:43:43.721Z,96309.69
2023-06-19T06:45:15.494Z,96310.91
2023-06-19T06:46:47.384Z,96306.84
2023-06-19T06:48:19.114Z,96299.53
2023-06-19T06:49:51.466Z,96300.28
2023-06-19T06:51:25.747Z,96306.72
2023-06-19T06:52:57.407Z,96309.63
2023-06-19T06:54:29.070Z,96306.81
2023-06-19T06:56:01.165Z,96296.13
2023-06-19T06:57:32.923Z,96296.59
2023-06-19T06:59:04.562Z,96297.72
2023-06-19T07:00:36.274Z,96294.13
2023-06-19T07:02:08.130Z,96296.53
2023-06-19T07:03:40.623Z,96299.19
2023-06-19T07:05:12.467Z,96289.84
2023-06-19T07:06:45.652Z,96295.72
2023-06-19T07:08:17.317Z,96293.72
2023-06-19T07:09:49.118Z,96289.06
2023-06-19T07:11:20.798Z,96297.03
2023-06-19T07:12:52.576Z,96291.88
2023-06-19T07:14:24.312Z,96291.13
2023-06-19T07:15:56.081Z,96285.59
2023-06-19T07:17:27.934Z,96284.53
2023-06-19T07:18:59.765Z,96286.19
2023-06-19T07:20:31.445Z,96288.72
2023-06-19T07:22:05.316Z,96289.00
2023-06-19T07:23:38.051Z,96282.47
2023-06-19T07:25:10.892Z,96281.97
2023-06-19T07:26:42.629Z,96285.34
2023-06-19T07:28:14.310Z,96280.59
2023-06-19T07:29:46.038Z,96271.78
2023-06-19T07:31:17.695Z,96278.31
2023-06-19T07:32:49.673Z,96271.09
2023-06-19T07:34:21.476Z,96274.03
2023-06-19T07:35:53.189Z,96276.59
2023-06-19T07:37:26.392Z,96283.72
2023-06-19T07:38:58.106Z,96280.78
2023-06-19T07:40:29.768Z,96278.81
2023-06-19T07:42:01.490Z,96278.47
2023-06-19T07:43:33.263Z,96284.09
2023-06-19T07:45:06.125Z,96279.59
2023-06-19T07:46:37.959Z,96283.16
2023-06-19T07:48:09.691Z,96281.16
2023-06-19T07:49:41.461Z,96283.34
2023-06-19T07:51:13.333Z,96286.25
2023-06-19T07:52:46.345Z,96284.09
2023-06-19T07:54:18.168Z,96292.97
2023-06-19T07:55:49.913Z,96287.66
2023-06-19T07:57:21.880Z,96286.81
2023-06-19T07:58:53.569Z,96293.59
2023-06-19T08:00:25.938Z,96292.19
2023-06-19T08:01:57.952Z,96291.53
2023-06-19T08:03:29.889Z,96286.19
2023-06-19T08:05:01.709Z,96286.88
2023-06-19T08:06:33.488Z,96278.38
2023-06-19T08:08:06.655Z,96277.50
2023-06-19T08:09:38.316Z,96274.56
2023-06-19T08:11:10.025Z,96276.34
2023-06-19T08:12:42.115Z,96266.59
2023-06-19T08:14:13.865Z,96267.28
2023-06-19T08:15:46.433Z,96270.75
2023-06-19T08:17:18.248Z,96267.34
2023-06-19T08:18:49.973Z,96265.09
2023-06-19T08:20:21.779Z,96259.06
2023-06-19T08:21:56.165Z,96251.66
2023-06-19T08:23:29.265Z,96253.16
2023-06-19T08:25:01.001Z,96268.28
2023-06-19T08:26:32.788Z,96251.28
2023-06-19T08:28:05.926Z,96250.53
2023-06-19T08:31:35.101Z,96252.06
2023-06-19T08:33:06.873Z,96253.22
2023-06-19T08:34:39.254Z,96257.47
2023-06-19T08:36:10.894Z,96265.38
2023-06-19T08:37:42.548Z,96253.50
2023-06-19T08:39:15.642Z,96256.06
2023-06-19T08:40:47.338Z,96252.91
2023-06-19T08:42:19.036Z,96263.84
2023-06-19T08:43:50.630Z,96266.16
2023-06-19T08:45:22.344Z,96253.84
2023-06-19T08:46:53.998Z,96261.44
2023-06-19T08:48:25.627Z,96259.72
2023-06-19T08:49:57.314Z,96263.63
2023-06-19T08:51:29.653Z,96265.94
2023-06-19T08:53:01.351Z,96258.91
2023-06-19T08:54:34.483Z,96257.13
2023-06-19T08:56:06.162Z,96262.06
2023-06-19T08:57:38.738Z,96252.38
2023-06-19T08:59:11.445Z,96253.56
2023-06-19T09:00:48.127Z,96255.22
2023-06-19T09:02:20.076Z,96259.69
2023-06-19T09:03:53.707Z,96255.44
2023-06-19T09:05:26.512Z,96262.22
2023-06-19T09:06:59.561Z,96258.94
2023-06-19T09:08:31.695Z,96251.63
2023-06-19T09:10:17.108Z,96262.19
2023-06-19T09:11:58.781Z,96262.31
2023-06-19T09:13:30.808Z,96248.88
2023-06-19T09:15:02.434Z,96249.25
2023-06-19T09:16:38.868Z,96258.41
2023-06-19T09:18:11.382Z,96249.88
2023-06-19T09:19:48.602Z,96254.69
2023-06-19T09:21:22.952Z,96244.09
2023-06-19T09:22:55.895Z,96250.63
2023-06-19T09:24:34.553Z,96244.53
2023-06-19T09:26:07.877Z,96248.41
2023-06-19T09:27:39.522Z,96246.94
2023-06-19T09:29:15.354Z,96244.34
2023-06-19T09:30:58.079Z,96241.81
2023-06-19T09:32:29.939Z,96240.00
2023-06-19T09:34:01.705Z,96240.22
2023-06-19T09:35:33.412Z,96233.34
2023-06-19T09:37:05.919Z,96229.56
2023-06-19T09:38:44.233Z,96231.16
2023-06-19T09:40:16.104Z,96237.34
2023-06-19T09:41:49.163Z,96230.00
2023-06-19T09:43:24.324Z,96230.84
2023-06-19T09:44:56.872Z,96239.44
2023-06-19T09:46:33.237Z,96234.31
2023-06-19T09:48:05.326Z,96239.25
2023-06-19T09:49:36.943Z,96239.38
2023-06-19T09:51:11.576Z,96242.22
2023-06-19T09:52:44.561Z,96243.88
2023-06-19T09:54:16.333Z,96242.88
2023-06-19T09:55:48.918Z,96245.94
2023-06-19T09:57:21.930Z,96232.19
2023-06-19T09:58:54.730Z,96236.13
2023-06-19T10:00:32.212Z,96238.72
2023-06-19T10:02:07.496Z,96239.94
2023-06-19T10:03:41.528Z,96239.59
2023-06-19T10:05:15.234Z,96243.72
2023-06-19T10:06:47.863Z,96238.69
2023-06-19T10:08:29.217Z,96238.53
2023-06-19T10:10:02.219Z,96236.28
2023-06-19T10:11:45.563Z,96234.63
2023-06-19T10:13:18.933Z,96236.78
2023-06-19T10:14:51.300Z,96239.16
2023-06-19T10:16:23.312Z,96236.94
2023-06-19T10:18:00.252Z,96234.84
2023-06-19T10:19:31.929Z,96237.66
2023-06-19T10:21:03.637Z,96237.81
2023-06-19T10:22:35.289Z,96241.66
2023-06-19T10:24:07.043Z,96239.69
2023-06-19T10:25:40.053Z,96231.56
2023-06-19T10:27:13.396Z,96233.19
2023-06-19T10:28:49.385Z,96231.84
2023-06-19T10:30:21.676Z,96228.47
2023-06-19T10:31:53.732Z,96220.88
2023-06-19T10:33:26.587Z,96224.25
2023-06-19T10:34:58.229Z,96221.53
2023-06-19T10:36:29.893Z,96218.63
2023-06-19T10:38:01.506Z,96215.09
2023-06-19T10:39:33.532Z,96213.81
2023-06-19T10:41:05.149Z,96212.69
2023-06-19T10:42:37.440Z,96206.81
2023-06-19T10:44:13.544Z,96205.19
2023-06-19T10:45:48.371Z,96201.03
2023-06-19T10:47:20.068Z,96201.75
2023-06-19T10:48:51.706Z,96202.84
2023-06-19T10:50:24.216Z,96201.84
2023-06-19T10:52:00.049Z,96201.28
2023-06-19T10:53:32.652Z,96197.22
2023-06-19T10:55:05.647Z,96194.47
2023-06-19T10:56:37.616Z,96192.84
2023-06-19T10:58:09.295Z,96192.53
2023-06-19T10:59:42.274Z,96197.88
2023-06-19T11:01:13.995Z,96187.69
2023-06-19T11:02:45.741Z,96193.81
2023-06-19T11:04:17.641Z,96185.56
2023-06-19T11:05:49.626Z,96186.53
2023-06-19T11:07:21.338Z,96181.09
2023-06-19T11:08:55.731Z,96184.91
2023-06-19T11:10:28.982Z,96179.75
2023-06-19T11:12:02.131Z,96175.06
2023-06-19T11:13:33.741Z,96178.34
2023-06-19T11:15:08.168Z,96174.13
2023-06-19T11:16:42.779Z,96178.66
2023-06-19T11:18:15.836Z,96170.47
2023-06-19T11:19:47.485Z,96168.06
2023-06-19T11:21:19.145Z,96166.78
2023-06-19T11:22:55.863Z,96170.75
2023-06-19T11:24:27.919Z,96165.59
2023-06-19T11:26:03.537Z,96176.53
2023-06-19T11:27:36.182Z,96167.72
2023-06-19T11:29:17.460Z,96174.56
2023-06-19T11:30:58.476Z,96180.81
2023-06-19T11:32:34.774Z,96172.06
2023-06-19T11:34:07.241Z,96169.06
2023-06-19T11:35:40.308Z,96160.72
2023-06-19T11:37:15.323Z,96159.53
2023-06-19T11:38:47.052Z,96161.63
2023-06-19T11:40:22.322Z,96172.59
2023-06-19T11:41:55.097Z,96166.84
2023-06-19T11:43:27.113Z,96154.16
2023-06-19T11:45:02.611Z,96157.25
2023-06-19T11:46:35.666Z,96162.50
2023-06-19T11:48:07.567Z,96157.97
2023-06-19T11:49:39.289Z,96155.56
2023-06-19T11:51:11.068Z,96153.41
2023-06-19T11:52:43.460Z,96156.81
2023-06-19T11:54:18.960Z,96152.63
2023-06-19T11:55:50.701Z,96156.22
2023-06-19T11:57:22.332Z,96152.25
2023-06-19T11:58:54.002Z,96146.56
2023-06-19T12:00:26.418Z,96147.00
2023-06-19T12:02:00.676Z,96141.66
2023-06-19T12:03:32.517Z,96148.72
2023-06-19T12:05:04.942Z,96145.56
2023-06-19T12:06:36.849Z,96148.50
2023-06-19T12:08:08.485Z,96144.81
2023-06-19T12:09:40.564Z,96148.94
2023-06-19T12:11:14.090Z,96133.88
2023-06-19T12:12:45.802Z,96131.44
2023-06-19T12:14:17.416Z,96132.94
2023-06-19T12:15:49.006Z,96131.91
2023-06-19T12:17:22.099Z,96136.06
2023-06-19T12:18:54.176Z,96131.63
2023-06-19T12:20:26.596Z,96129.41
2023-06-19T12:22:00.165Z,96131.78
2023-06-19T12:23:31.784Z,96122.16
2023-06-19T12:25:03.981Z,96123.28
2023-06-19T12:26:37.926Z,96122.63
2023-06-19T12:28:10.326Z,96119.59
2023-06-19T12:29:41.923Z,96109.53
2023-06-19T12:31:13.612Z,96107.94
2023-06-19T12:32:50.728Z,96109.53
2023-06-19T12:34:30.458Z,96106.63
2023-06-19T12:36:03.048Z,96109.75
2023-06-19T12:37:34.676Z,96101.69
2023-06-19T12:39:14.276Z,96103.00
2023-06-19T12:40:46.134Z,96106.69
2023-06-19T12:42:17.914Z,96105.78
2023-06-19T12:43:49.575Z,96096.56
2023-06-19T12:45:21.193Z,96100.50
2023-06-19T12:46:53.891Z,96096.47
2023-06-19T12:48:27.177Z,96096.06
2023-06-19T12:49:59.043Z,96104.34
2023-06-19T12:51:30.771Z,96092.75
2023-06-19T12:53:02.469Z,96096.25
2023-06-19T12:54:34.168Z,96089.63
2023-06-19T12:56:09.753Z,96082.59
2023-06-19T12:57:45.668Z,96074.38
2023-06-19T12:59:17.335Z,96075.56
2023-06-19T13:00:49.032Z,96076.22
2023-06-19T13:02:20.711Z,96076.09
2023-06-19T13:03:53.853Z,96073.00
2023-06-19T13:05:25.543Z,96077.13
2023-06-19T13:06:57.171Z,96075.81
2023-06-19T13:08:28.889Z,96072.63
2023-06-19T13:10:00.516Z,96069.09
2023-06-19T13:11:32.266Z,96067.34
2023-06-19T13:13:03.935Z,96071.84
2023-06-19T13:14:35.632Z,96058.25
2023-06-19T13:16:07.351Z,96067.22
2023-06-19T13:17:39.293Z,96067.28
2023-06-19T13:19:12.284Z,96061.91
2023-06-19T13:20:45.978Z,96055.31
2023-06-19T13:22:17.958Z,96055.59
2023-06-19T13:23:50.242Z,96052.16
2023-06-19T13:25:22.055Z,96057.75
2023-06-19T13:26:53.702Z,96059.38
2023-06-19T13:28:25.401Z,96059.09
2023-06-19T13:29:57.076Z,96057.59
2023-06-19T13:31:28.859Z,96060.25
2023-06-19T13:33:03.189Z,96051.63
2023-06-19T13:34:37.771Z,96047.13
2023-06-19T13:36:09.402Z,96047.59
2023-06-19T13:37:41.143Z,96047.69
2023-06-19T13:39:12.980Z,96047.41
2023-06-19T13:40:44.613Z,96039.66
2023-06-19T13:42:16.861Z,96044.09
2023-06-19T13:43:48.674Z,96035.19
2023-06-19T13:45:20.324Z,96049.31
2023-06-19T13:46:52.005Z,96038.19
2023-06-19T13:48:23.853Z,96040.03
2023-06-19T13:49:56.910Z,96035.56
2023-06-19T13:51:28.995Z,96042.44
2023-06-19T13:53:00.742Z,96042.28
2023-06-19T13:54:32.419Z,96041.34
2023-06-19T13:56:07.206Z,96039.09
2023-06-19T13:57:39.184Z,96032.03
2023-06-19T13:59:10.904Z,96038.88
2023-06-19T14:00:42.722Z,96032.19
2023-06-19T14:02:14.428Z,96031.63
2023-06-19T14:03:46.325Z,96041.31
2023-06-19T14:05:19.308Z,96033.56
2023-06-19T14:06:51.114Z,96031.78
2023-06-19T14:08:22.778Z,96029.66
2023-06-19T14:09:55.522Z,96028.44
2023-06-19T14:11:27.122Z,96022.88
2023-06-19T14:12:59.375Z,96028.91
2023-06-19T14:14:31.187Z,96022.28
2023-06-19T14:16:03.030Z,96024.13
2023-06-19T14:17:34.794Z,96024.34
2023-06-19T14:19:06.453Z,96024.13
2023-06-19T14:20:39.547Z,96014.94
2023-06-19T14:22:11.497Z,96014.66
2023-06-19T14:23:45.215Z,96012.13
2023-06-19T14:25:17.015Z,96014.88
2023-06-19T14:26:48.695Z,96012.66
2023-06-19T14:28:20.380Z,96004.78
2023-06-19T14:29:51.995Z,96010.66
2023-06-19T14:31:23.888Z,96005.66
2023-06-19T14:32:55.574Z,96008.00
2023-06-19T14:34:27.270Z,96004.69
2023-06-19T14:36:00.664Z,96007.13
2023-06-19T14:37:32.483Z,95999.56
2023-06-19T14:39:04.297Z,96008.63
2023-06-19T14:40:35.928Z,96002.50
2023-06-19T14:42:07.903Z,96005.13
2023-06-19T14:43:39.794Z,96011.97
2023-06-19T14:45:11.890Z,95998.75
2023-06-19T14:46:43.853Z,96000.03
2023-06-19T14:48:15.513Z,96001.56
2023-06-19T14:49:47.149Z,96001.22
2023-06-19T14:51:20.459Z,95999.34
2023-06-19T14:52:52.184Z,96001.47
2023-06-19T14:54:24.009Z,95994.53
2023-06-19T14:55:55.644Z,95991.16
2023-06-19T14:57:27.668Z,95988.44
2023-06-19T14:58:59.357Z,95979.69
2023-06-19T15:00:31.171Z,95984.56
2023-06-19T15:02:03.939Z,95996.53
2023-06-19T15:03:36.278Z,95986.22
2023-06-19T15:05:08.895Z,95994.94
2023-06-19T15:06:42.060Z,95986.19
2023-06-19T15:08:13.647Z,95989.22
2023-06-19T15:09:45.274Z,95980.50
2023-06-19T15:11:16.903Z,95979.34
2023-06-19T15:12:48.562Z,95981.50
2023-06-19T15:14:20.689Z,95979.97
2023-06-19T15:15:52.325Z,95979.34
2023-06-19T15:17:23.970Z,95989.88
2023-06-19T15:18:55.689Z,95990.03
2023-06-19T15:20:27.392Z,95987.00
2023-06-19T15:22:00.373Z,95993.78
2023-06-19T15:23:32.209Z,95979.75
2023-06-19T15:25:04.017Z,95989.19
2023-06-19T15:26:39.132Z,95988.00
2023-06-19T15:28:11.748Z,95991.25
2023-06-19T15:29:43.382Z,95987.56
2023-06-19T15:31:16.853Z,95984.06
2023-06-19T15:32:48.499Z,95986.63
2023-06-19T15:34:20.134Z,95989.09
2023-06-19T15:35:52.110Z,95987.19
2023-06-19T15:37:25.159Z,95993.72
2023-06-19T15:38:56.903Z,95987.84
2023-06-19T15:40:28.608Z,95990.88
2023-06-19T15:42:00.390Z,95986.44
2023-06-19T15:43:32.102Z,95987.22
2023-06-19T15:45:04.030Z,95989.94
2023-06-19T15:46:35.737Z,95985.63
2023-06-19T15:48:07.463Z,95982.00
2023-06-19T15:49:39.240Z,95975.81
2023-06-19T15:51:11.354Z,95976.09
2023-06-19T15:52:44.413Z,95978.00
2023-06-19T15:54:16.051Z,95970.53
2023-06-19T15:55:47.651Z,95981.50
2023-06-19T15:57:19.386Z,95978.03
2023-06-19T15:58:52.113Z,95981.13
2023-06-19T16:00:24.652Z,95988.31
2023-06-19T16:01:56.447Z,95978.69
2023-06-19T16:03:31.323Z,95988.34
2023-06-19T16:05:03.624Z,95993.84
2023-06-19T16:06:35.369Z,95984.84
2023-06-19T16:08:08.329Z,95981.13
2023-06-19T16:09:50.313Z,95983.66
2023-06-19T16:11:26.557Z,95986.34
2023-06-19T16:12:58.258Z,95987.34
2023-06-19T16:14:29.888Z,95988.03
2023-06-19T16:16:01.676Z,95987.84
2023-06-19T16:17:33.883Z,95987.31
2023-06-19T16:19:05.587Z,95995.06
2023-06-19T16:20:37.284Z,95990.22
2023-06-19T16:22:09.000Z,95991.13
2023-06-19T16:23:42.104Z,96000.00
2023-06-19T16:25:13.810Z,95999.00
2023-06-19T16:26:45.425Z,96002.44
2023-06-19T16:28:17.083Z,96001.44
2023-06-19T16:29:48.748Z,95993.69
2023-06-19T16:31:20.417Z,95991.59
2023-06-19T16:32:52.115Z,95993.44
2023-06-19T16:34:23.804Z,95998.00
2023-06-19T16:35:58.432Z,95994.63
2023-06-19T16:37:30.123Z,95997.38
2023-06-19T16:39:03.577Z,95993.16
2023-06-19T16:40:35.356Z,95993.72
2023-06-19T16:42:07.344Z,95999.78
2023-06-19T16:43:39.035Z,95998.94
2023-06-19T16:45:11.274Z,96002.59
2023-06-19T16:46:42.914Z,95997.81
2023-06-19T16:48:14.718Z,95996.94
2023-06-19T16:49:46.413Z,95995.66
2023-06-19T16:51:18.320Z,95994.66
2023-06-19T16:52:50.479Z,95991.25
2023-06-19T16:54:23.710Z,95993.97
2023-06-19T16:55:57.027Z,95989.06
2023-06-19T16:57:30.132Z,95990.06
2023-06-19T16:59:02.957Z,95991.53
2023-06-19T17:00:34.818Z,96000.03
2023-06-19T17:02:06.636Z,95998.06
2023-06-19T17:03:38.457Z,95995.50
2023-06-19T17:05:10.321Z,95987.19
2023-06-19T17:06:42.005Z,95993.88
2023-06-19T17:08:13.956Z,96004.13
2023-06-19T17:09:49.696Z,95993.56
2023-06-19T17:11:21.446Z,96001.78
2023-06-19T17:12:53.178Z,95997.06
2023-06-19T17:14:24.860Z,95997.72
2023-06-19T17:15:59.737Z,96014.28
2023-06-19T17:17:32.406Z,96013.41
2023-06-19T17:19:06.676Z,96017.84
2023-06-19T17:20:38.723Z,96021.50
2023-06-19T17:22:10.433Z,96019.53
2023-06-19T17:23:42.102Z,96024.13
2023-06-19T17:25:15.400Z,96023.94
2023-06-19T17:26:47.111Z,96019.22
2023-06-19T17:28:18.751Z,96022.44
2023-06-19T17:29:50.406Z,96025.63
2023-06-19T17:31:22.032Z,96024.00
2023-06-19T17:32:53.665Z,96026.28
2023-06-19T17:34:25.340Z,96021.28
2023-06-19T17:35:56.940Z,96039.97
2023-06-19T17:37:28.628Z,96025.81
2023-06-19T17:39:00.259Z,96026.59
2023-06-19T17:40:33.276Z,96025.34
2023-06-19T17:42:07.547Z,96022.50
2023-06-19T17:43:39.228Z,96022.63
2023-06-19T17:45:12.350Z,96014.25
2023-06-19T17:46:44.909Z,96014.75
2023-06-19T17:48:16.642Z,96010.78
2023-06-19T17:49:51.355Z,96017.78
2023-06-19T17:51:24.019Z,96022.69
2023-06-19T17:52:55.663Z,96013.81
2023-06-19T17:54:27.359Z,96011.69
2023-06-19T17:56:04.959Z,96011.44
2023-06-19T17:57:36.831Z,96004.13
2023-06-19T17:59:08.629Z,95996.38
2023-06-19T18:00:40.287Z,95991.66
2023-06-19T18:02:12.046Z,95997.88
2023-06-19T18:03:43.985Z,95996.69
2023-06-19T18:05:15.973Z,95999.41
2023-06-19T18:06:47.780Z,96001.41
2023-06-19T18:08:19.474Z,96007.16
2023-06-19T18:09:51.218Z,96015.06
2023-06-19T18:11:24.294Z,96016.25
2023-06-19T18:12:55.894Z,96028.72
2023-06-19T18:14:27.793Z,96021.88
2023-06-19T18:16:11.239Z,96030.22